sensor_id;sensor_type;location;lat;lon;timestamp;P1;durP1;ratioP1;P2;durP2;ratioP2
12976;SDS011;6553;48.412;9.514;2023-08-08T00:01:21;1.63;;;1.23;;
12976;SDS011;6553;48.412;9.514;2023-08-08T00:03:46;2.40;;;1.70;;
12976;SDS011;6553;48.412;9.514;2023-08-08T00:06:12;1.95;;;1.40;;
12976;SDS011;6553;48.412;9.514;2023-08-08T00:08:38;1.35;;;1.25;;
12976;SDS011;6553;48.412;9.514;2023-08-08T00:11:04;1.83;;;1.50;;
12976;SDS011;6553;48.412;9.514;2023-08-08T00:13:30;2.08;;;1.50;;
12976;SDS011;6553;48.412;9.514;2023-08-08T00:15:55;1.30;;;1.20;;
12976;SDS011;6553;48.412;9.514;2023-08-08T00:18:21;1.75;;;1.50;;
12976;SDS011;6553;48.412;9.514;2023-08-08T00:20:47;2.20;;;1.60;;
12976;SDS011;6553;48.412;9.514;2023-08-08T00:23:13;2.20;;;1.27;;
12976;SDS011;6553;48.412;9.514;2023-08-08T00:25:38;1.90;;;1.40;;
12976;SDS011;6553;48.412;9.514;2023-08-08T00:28:04;1.67;;;1.30;;
12976;SDS011;6553;48.412;9.514;2023-08-08T00:30:30;1.33;;;1.20;;
12976;SDS011;6553;48.412;9.514;2023-08-08T00:32:56;3.28;;;1.30;;
12976;SDS011;6553;48.412;9.514;2023-08-08T00:35:22;1.33;;;1.23;;
12976;SDS011;6553;48.412;9.514;2023-08-08T00:37:48;1.85;;;1.40;;
12976;SDS011;6553;48.412;9.514;2023-08-08T00:40:14;2.40;;;1.40;;
12976;SDS011;6553;48.412;9.514;2023-08-08T00:42:39;2.45;;;1.42;;
12976;SDS011;6553;48.412;9.514;2023-08-08T00:45:05;1.77;;;1.40;;
12976;SDS011;6553;48.412;9.514;2023-08-08T00:47:32;1.77;;;1.40;;
12976;SDS011;6553;48.412;9.514;2023-08-08T00:50:00;2.08;;;1.40;;
12976;SDS011;6553;48.412;9.514;2023-08-08T00:52:28;2.22;;;1.23;;
12976;SDS011;6553;48.412;9.514;2023-08-08T00:54:54;1.70;;;1.20;;
12976;SDS011;6553;48.412;9.514;2023-08-08T00:57:21;1.63;;;1.30;;
12976;SDS011;6553;48.412;9.514;2023-08-08T00:59:47;1.88;;;1.38;;
12976;SDS011;6553;48.412;9.514;2023-08-08T01:02:14;2.47;;;1.45;;
12976;SDS011;6553;48.412;9.514;2023-08-08T01:04:40;1.20;;;1.10;;
12976;SDS011;6553;48.412;9.514;2023-08-08T01:07:09;1.65;;;1.20;;
12976;SDS011;6553;48.412;9.514;2023-08-08T01:12:34;1.58;;;1.20;;
12976;SDS011;6553;48.412;9.514;2023-08-08T01:15:09;1.40;;;1.30;;
12976;SDS011;6553;48.412;9.514;2023-08-08T01:17:38;2.33;;;1.30;;
12976;SDS011;6553;48.412;9.514;2023-08-08T01:20:05;1.15;;;1.10;;
12976;SDS011;6553;48.412;9.514;2023-08-08T01:22:40;2.25;;;1.30;;
12976;SDS011;6553;48.412;9.514;2023-08-08T01:25:35;2.22;;;1.25;;
12976;SDS011;6553;48.412;9.514;2023-08-08T01:28:03;1.33;;;1.00;;
12976;SDS011;6553;48.412;9.514;2023-08-08T01:30:30;1.20;;;1.10;;
12976;SDS011;6553;48.412;9.514;2023-08-08T01:32:56;1.60;;;1.25;;
12976;SDS011;6553;48.412;9.514;2023-08-08T01:35:21;2.58;;;1.27;;
12976;SDS011;6553;48.412;9.514;2023-08-08T01:37:54;1.55;;;1.33;;
12976;SDS011;6553;48.412;9.514;2023-08-08T01:40:31;1.42;;;1.33;;
12976;SDS011;6553;48.412;9.514;2023-08-08T01:42:59;2.05;;;1.02;;
12976;SDS011;6553;48.412;9.514;2023-08-08T01:45:25;1.40;;;1.10;;
12976;SDS011;6553;48.412;9.514;2023-08-08T01:47:51;1.30;;;1.20;;
12976;SDS011;6553;48.412;9.514;2023-08-08T01:50:17;1.27;;;1.10;;
12976;SDS011;6553;48.412;9.514;2023-08-08T01:52:43;1.27;;;1.17;;
12976;SDS011;6553;48.412;9.514;2023-08-08T01:55:09;1.30;;;1.20;;
12976;SDS011;6553;48.412;9.514;2023-08-08T01:57:35;1.23;;;1.13;;
12976;SDS011;6553;48.412;9.514;2023-08-08T02:00:01;1.38;;;1.27;;
12976;SDS011;6553;48.412;9.514;2023-08-08T02:02:40;1.33;;;1.23;;
12976;SDS011;6553;48.412;9.514;2023-08-08T02:05:06;1.10;;;1.00;;
12976;SDS011;6553;48.412;9.514;2023-08-08T02:07:32;1.23;;;1.13;;
12976;SDS011;6553;48.412;9.514;2023-08-08T02:09:59;1.40;;;1.17;;
12976;SDS011;6553;48.412;9.514;2023-08-08T02:12:25;1.10;;;1.00;;
12976;SDS011;6553;48.412;9.514;2023-08-08T02:14:51;1.48;;;1.27;;
12976;SDS011;6553;48.412;9.514;2023-08-08T02:17:17;1.55;;;1.08;;
12976;SDS011;6553;48.412;9.514;2023-08-08T02:19:42;2.67;;;1.40;;
12976;SDS011;6553;48.412;9.514;2023-08-08T02:22:08;1.17;;;1.00;;
12976;SDS011;6553;48.412;9.514;2023-08-08T02:24:34;1.20;;;1.10;;
12976;SDS011;6553;48.412;9.514;2023-08-08T02:27:00;1.55;;;1.10;;
12976;SDS011;6553;48.412;9.514;2023-08-08T02:29:26;1.58;;;1.00;;
12976;SDS011;6553;48.412;9.514;2023-08-08T02:31:51;1.30;;;1.20;;
12976;SDS011;6553;48.412;9.514;2023-08-08T02:34:17;1.10;;;1.00;;
12976;SDS011;6553;48.412;9.514;2023-08-08T02:36:43;1.85;;;1.10;;
12976;SDS011;6553;48.412;9.514;2023-08-08T02:39:09;1.20;;;1.10;;
12976;SDS011;6553;48.412;9.514;2023-08-08T02:41:35;1.35;;;1.10;;
12976;SDS011;6553;48.412;9.514;2023-08-08T02:44:00;2.80;;;1.45;;
12976;SDS011;6553;48.412;9.514;2023-08-08T02:46:27;1.20;;;1.10;;
12976;SDS011;6553;48.412;9.514;2023-08-08T02:48:52;1.20;;;1.10;;
12976;SDS011;6553;48.412;9.514;2023-08-08T02:51:18;1.85;;;1.08;;
12976;SDS011;6553;48.412;9.514;2023-08-08T02:53:44;0.80;;;0.80;;
12976;SDS011;6553;48.412;9.514;2023-08-08T02:56:10;1.15;;;0.90;;
12976;SDS011;6553;48.412;9.514;2023-08-08T02:58:39;1.42;;;0.95;;
12976;SDS011;6553;48.412;9.514;2023-08-08T03:01:06;1.73;;;1.17;;
12976;SDS011;6553;48.412;9.514;2023-08-08T03:03:32;1.05;;;0.90;;
12976;SDS011;6553;48.412;9.514;2023-08-08T03:05:58;2.03;;;1.38;;
12976;SDS011;6553;48.412;9.514;2023-08-08T03:08:25;1.20;;;1.10;;
12976;SDS011;6553;48.412;9.514;2023-08-08T03:10:53;1.17;;;1.10;;
12976;SDS011;6553;48.412;9.514;2023-08-08T03:13:19;0.98;;;0.98;;
12976;SDS011;6553;48.412;9.514;2023-08-08T03:15:46;1.00;;;1.00;;
12976;SDS011;6553;48.412;9.514;2023-08-08T03:18:11;0.82;;;0.82;;
12976;SDS011;6553;48.412;9.514;2023-08-08T03:20:37;1.20;;;1.10;;
12976;SDS011;6553;48.412;9.514;2023-08-08T03:23:04;1.10;;;1.00;;
12976;SDS011;6553;48.412;9.514;2023-08-08T03:25:30;1.00;;;0.90;;
12976;SDS011;6553;48.412;9.514;2023-08-08T03:27:56;1.13;;;1.00;;
12976;SDS011;6553;48.412;9.514;2023-08-08T03:30:22;0.98;;;0.95;;
12976;SDS011;6553;48.412;9.514;2023-08-08T03:32:48;1.92;;;1.30;;
12976;SDS011;6553;48.412;9.514;2023-08-08T03:35:14;1.10;;;1.00;;
12976;SDS011;6553;48.412;9.514;2023-08-08T03:37:41;1.17;;;1.08;;
12976;SDS011;6553;48.412;9.514;2023-08-08T03:40:07;0.90;;;0.90;;
12976;SDS011;6553;48.412;9.514;2023-08-08T03:42:34;1.38;;;1.00;;
12976;SDS011;6553;48.412;9.514;2023-08-08T03:44:59;1.27;;;1.05;;
12976;SDS011;6553;48.412;9.514;2023-08-08T03:47:26;1.25;;;0.80;;
12976;SDS011;6553;48.412;9.514;2023-08-08T03:49:53;2.22;;;1.15;;
12976;SDS011;6553;48.412;9.514;2023-08-08T03:52:22;1.23;;;0.90;;
12976;SDS011;6553;48.412;9.514;2023-08-08T03:54:50;1.08;;;0.95;;
12976;SDS011;6553;48.412;9.514;2023-08-08T03:57:16;2.00;;;1.20;;
12976;SDS011;6553;48.412;9.514;2023-08-08T03:59:42;0.73;;;0.73;;
12976;SDS011;6553;48.412;9.514;2023-08-08T04:02:08;0.90;;;0.90;;
12976;SDS011;6553;48.412;9.514;2023-08-08T04:04:33;1.05;;;0.95;;
12976;SDS011;6553;48.412;9.514;2023-08-08T04:06:59;1.02;;;1.02;;
12976;SDS011;6553;48.412;9.514;2023-08-08T04:09:25;1.33;;;1.10;;
12976;SDS011;6553;48.412;9.514;2023-08-08T04:11:51;1.55;;;1.08;;
12976;SDS011;6553;48.412;9.514;2023-08-08T04:14:17;0.90;;;0.90;;
12976;SDS011;6553;48.412;9.514;2023-08-08T04:16:43;1.30;;;1.05;;
12976;SDS011;6553;48.412;9.514;2023-08-08T04:19:08;1.52;;;0.88;;
12976;SDS011;6553;48.412;9.514;2023-08-08T04:21:34;0.93;;;0.73;;
12976;SDS011;6553;48.412;9.514;2023-08-08T04:24:00;1.95;;;0.90;;
12976;SDS011;6553;48.412;9.514;2023-08-08T04:26:27;1.20;;;1.10;;
12976;SDS011;6553;48.412;9.514;2023-08-08T04:28:53;1.00;;;1.00;;
12976;SDS011;6553;48.412;9.514;2023-08-08T04:31:19;0.93;;;0.90;;
12976;SDS011;6553;48.412;9.514;2023-08-08T04:33:45;1.02;;;1.00;;
12976;SDS011;6553;48.412;9.514;2023-08-08T04:36:10;1.38;;;1.08;;
12976;SDS011;6553;48.412;9.514;2023-08-08T04:38:36;1.23;;;1.10;;
12976;SDS011;6553;48.412;9.514;2023-08-08T04:41:02;1.20;;;1.10;;
12976;SDS011;6553;48.412;9.514;2023-08-08T04:43:27;1.17;;;1.08;;
12976;SDS011;6553;48.412;9.514;2023-08-08T04:45:53;1.45;;;1.10;;
12976;SDS011;6553;48.412;9.514;2023-08-08T04:48:19;0.90;;;0.90;;
12976;SDS011;6553;48.412;9.514;2023-08-08T04:50:48;1.80;;;1.10;;
12976;SDS011;6553;48.412;9.514;2023-08-08T04:53:14;1.10;;;1.10;;
12976;SDS011;6553;48.412;9.514;2023-08-08T04:55:39;0.95;;;0.95;;
12976;SDS011;6553;48.412;9.514;2023-08-08T04:58:05;1.48;;;1.38;;
12976;SDS011;6553;48.412;9.514;2023-08-08T05:00:31;2.47;;;1.85;;
12976;SDS011;6553;48.412;9.514;2023-08-08T05:02:57;1.60;;;1.50;;
12976;SDS011;6553;48.412;9.514;2023-08-08T05:05:23;1.20;;;1.10;;
12976;SDS011;6553;48.412;9.514;2023-08-08T05:07:48;1.40;;;1.30;;
12976;SDS011;6553;48.412;9.514;2023-08-08T05:10:14;1.45;;;1.10;;
12976;SDS011;6553;48.412;9.514;2023-08-08T05:12:40;1.58;;;1.48;;
12976;SDS011;6553;48.412;9.514;2023-08-08T05:15:06;1.20;;;1.10;;
12976;SDS011;6553;48.412;9.514;2023-08-08T05:17:32;1.40;;;1.30;;
12976;SDS011;6553;48.412;9.514;2023-08-08T05:19:58;1.73;;;1.48;;
12976;SDS011;6553;48.412;9.514;2023-08-08T05:22:24;1.23;;;1.20;;
12976;SDS011;6553;48.412;9.514;2023-08-08T05:24:49;1.27;;;1.17;;
12976;SDS011;6553;48.412;9.514;2023-08-08T05:27:15;1.60;;;1.50;;
12976;SDS011;6553;48.412;9.514;2023-08-08T05:29:41;1.83;;;1.63;;
12976;SDS011;6553;48.412;9.514;2023-08-08T05:32:07;1.20;;;1.10;;
12976;SDS011;6553;48.412;9.514;2023-08-08T05:34:33;1.92;;;1.40;;
12976;SDS011;6553;48.412;9.514;2023-08-08T05:36:59;1.70;;;1.60;;
12976;SDS011;6553;48.412;9.514;2023-08-08T05:39:25;1.10;;;1.00;;
12976;SDS011;6553;48.412;9.514;2023-08-08T05:41:51;1.70;;;1.60;;
12976;SDS011;6553;48.412;9.514;2023-08-08T05:44:17;1.40;;;1.30;;
12976;SDS011;6553;48.412;9.514;2023-08-08T05:46:43;1.58;;;1.33;;
12976;SDS011;6553;48.412;9.514;2023-08-08T05:49:09;1.55;;;1.45;;
12976;SDS011;6553;48.412;9.514;2023-08-08T05:51:34;1.45;;;1.35;;
12976;SDS011;6553;48.412;9.514;2023-08-08T05:54:00;1.60;;;1.50;;
12976;SDS011;6553;48.412;9.514;2023-08-08T05:56:33;1.83;;;1.50;;
12976;SDS011;6553;48.412;9.514;2023-08-08T05:59:01;2.00;;;1.40;;
12976;SDS011;6553;48.412;9.514;2023-08-08T06:01:27;1.40;;;1.30;;
12976;SDS011;6553;48.412;9.514;2023-08-08T06:03:53;1.20;;;1.10;;
12976;SDS011;6553;48.412;9.514;2023-08-08T06:06:19;1.35;;;1.25;;
12976;SDS011;6553;48.412;9.514;2023-08-08T06:08:44;1.10;;;1.10;;
12976;SDS011;6553;48.412;9.514;2023-08-08T06:11:10;1.40;;;1.30;;
12976;SDS011;6553;48.412;9.514;2023-08-08T06:13:36;1.10;;;1.10;;
12976;SDS011;6553;48.412;9.514;2023-08-08T06:16:02;1.52;;;1.42;;
12976;SDS011;6553;48.412;9.514;2023-08-08T06:18:31;1.40;;;1.30;;
12976;SDS011;6553;48.412;9.514;2023-08-08T06:20:58;0.95;;;0.93;;
12976;SDS011;6553;48.412;9.514;2023-08-08T06:23:24;1.30;;;1.17;;
12976;SDS011;6553;48.412;9.514;2023-08-08T06:25:50;1.25;;;1.15;;
12976;SDS011;6553;48.412;9.514;2023-08-08T06:28:15;1.23;;;1.13;;
12976;SDS011;6553;48.412;9.514;2023-08-08T06:30:41;1.30;;;1.20;;
12976;SDS011;6553;48.412;9.514;2023-08-08T06:33:07;1.38;;;1.17;;
12976;SDS011;6553;48.412;9.514;2023-08-08T06:35:33;1.23;;;1.13;;
12976;SDS011;6553;48.412;9.514;2023-08-08T06:37:59;1.30;;;1.20;;
12976;SDS011;6553;48.412;9.514;2023-08-08T06:40:25;1.08;;;1.08;;
12976;SDS011;6553;48.412;9.514;2023-08-08T06:42:50;1.70;;;1.30;;
12976;SDS011;6553;48.412;9.514;2023-08-08T06:45:16;1.08;;;1.05;;
12976;SDS011;6553;48.412;9.514;2023-08-08T06:47:42;3.10;;;1.50;;
12976;SDS011;6553;48.412;9.514;2023-08-08T06:50:08;3.55;;;1.40;;
12976;SDS011;6553;48.412;9.514;2023-08-08T06:52:34;2.45;;;1.30;;
12976;SDS011;6553;48.412;9.514;2023-08-08T06:55:00;1.65;;;1.05;;
12976;SDS011;6553;48.412;9.514;2023-08-08T06:57:26;3.05;;;1.00;;
12976;SDS011;6553;48.412;9.514;2023-08-08T06:59:52;1.67;;;1.20;;
12976;SDS011;6553;48.412;9.514;2023-08-08T07:02:19;2.08;;;1.10;;
12976;SDS011;6553;48.412;9.514;2023-08-08T07:04:46;2.03;;;1.35;;
12976;SDS011;6553;48.412;9.514;2023-08-08T07:07:11;1.77;;;1.33;;
12976;SDS011;6553;48.412;9.514;2023-08-08T07:09:37;3.45;;;1.15;;
12976;SDS011;6553;48.412;9.514;2023-08-08T07:12:03;1.58;;;1.48;;
12976;SDS011;6553;48.412;9.514;2023-08-08T07:14:29;3.70;;;1.50;;
12976;SDS011;6553;48.412;9.514;2023-08-08T07:16:55;3.75;;;1.73;;
12976;SDS011;6553;48.412;9.514;2023-08-08T07:19:21;4.85;;;1.40;;
12976;SDS011;6553;48.412;9.514;2023-08-08T07:21:47;2.20;;;1.60;;
12976;SDS011;6553;48.412;9.514;2023-08-08T07:24:13;1.60;;;1.50;;
12976;SDS011;6553;48.412;9.514;2023-08-08T07:26:39;3.30;;;1.05;;
12976;SDS011;6553;48.412;9.514;2023-08-08T07:29:05;3.45;;;1.30;;
12976;SDS011;6553;48.412;9.514;2023-08-08T07:31:31;2.30;;;1.35;;
12976;SDS011;6553;48.412;9.514;2023-08-08T07:33:58;3.65;;;1.45;;
12976;SDS011;6553;48.412;9.514;2023-08-08T07:36:23;2.90;;;1.33;;
12976;SDS011;6553;48.412;9.514;2023-08-08T07:38:49;2.55;;;1.40;;
12976;SDS011;6553;48.412;9.514;2023-08-08T07:41:15;1.40;;;1.30;;
12976;SDS011;6553;48.412;9.514;2023-08-08T07:43:41;2.28;;;1.33;;
12976;SDS011;6553;48.412;9.514;2023-08-08T07:46:07;1.77;;;1.52;;
12976;SDS011;6553;48.412;9.514;2023-08-08T07:48:32;1.92;;;1.30;;
12976;SDS011;6553;48.412;9.514;2023-08-08T07:50:58;3.03;;;1.33;;
12976;SDS011;6553;48.412;9.514;2023-08-08T07:53:24;1.45;;;1.30;;
12976;SDS011;6553;48.412;9.514;2023-08-08T07:55:49;3.28;;;1.42;;
12976;SDS011;6553;48.412;9.514;2023-08-08T07:58:15;4.68;;;1.40;;
12976;SDS011;6553;48.412;9.514;2023-08-08T08:00:41;6.72;;;1.95;;
12976;SDS011;6553;48.412;9.514;2023-08-08T08:03:06;7.93;;;1.88;;
12976;SDS011;6553;48.412;9.514;2023-08-08T08:05:32;15.57;;;2.72;;
12976;SDS011;6553;48.412;9.514;2023-08-08T08:07:59;9.00;;;2.58;;
12976;SDS011;6553;48.412;9.514;2023-08-08T08:10:25;8.57;;;2.20;;
12976;SDS011;6553;48.412;9.514;2023-08-08T08:12:51;13.63;;;3.00;;
12976;SDS011;6553;48.412;9.514;2023-08-08T08:15:23;9.93;;;2.83;;
12976;SDS011;6553;48.412;9.514;2023-08-08T08:17:50;9.40;;;2.50;;
12976;SDS011;6553;48.412;9.514;2023-08-08T08:20:16;14.23;;;2.58;;
12976;SDS011;6553;48.412;9.514;2023-08-08T08:22:41;12.75;;;2.58;;
12976;SDS011;6553;48.412;9.514;2023-08-08T08:25:07;5.97;;;2.45;;
12976;SDS011;6553;48.412;9.514;2023-08-08T08:27:37;14.77;;;2.72;;
12976;SDS011;6553;48.412;9.514;2023-08-08T08:30:04;13.65;;;2.30;;
12976;SDS011;6553;48.412;9.514;2023-08-08T08:32:34;11.10;;;2.70;;
12976;SDS011;6553;48.412;9.514;2023-08-08T08:35:02;9.70;;;2.22;;
12976;SDS011;6553;48.412;9.514;2023-08-08T08:37:29;8.88;;;2.25;;
12976;SDS011;6553;48.412;9.514;2023-08-08T08:39:55;5.05;;;1.98;;
12976;SDS011;6553;48.412;9.514;2023-08-08T08:42:21;5.63;;;1.83;;
12976;SDS011;6553;48.412;9.514;2023-08-08T08:44:49;4.97;;;1.90;;
12976;SDS011;6553;48.412;9.514;2023-08-08T08:47:17;5.68;;;2.20;;
12976;SDS011;6553;48.412;9.514;2023-08-08T08:49:45;6.40;;;2.03;;
12976;SDS011;6553;48.412;9.514;2023-08-08T08:52:11;3.75;;;1.92;;
12976;SDS011;6553;48.412;9.514;2023-08-08T08:54:37;3.90;;;1.80;;
12976;SDS011;6553;48.412;9.514;2023-08-08T08:57:03;2.67;;;1.70;;
12976;SDS011;6553;48.412;9.514;2023-08-08T08:59:30;5.85;;;1.70;;
12976;SDS011;6553;48.412;9.514;2023-08-08T09:01:56;4.53;;;1.65;;
12976;SDS011;6553;48.412;9.514;2023-08-08T09:04:22;6.53;;;1.77;;
12976;SDS011;6553;48.412;9.514;2023-08-08T09:06:49;4.80;;;1.90;;
12976;SDS011;6553;48.412;9.514;2023-08-08T09:09:16;2.35;;;1.73;;
12976;SDS011;6553;48.412;9.514;2023-08-08T09:11:47;3.65;;;1.98;;
12976;SDS011;6553;48.412;9.514;2023-08-08T09:14:19;5.28;;;1.70;;
12976;SDS011;6553;48.412;9.514;2023-08-08T09:16:51;3.22;;;1.67;;
12976;SDS011;6553;48.412;9.514;2023-08-08T09:19:18;5.85;;;1.90;;
12976;SDS011;6553;48.412;9.514;2023-08-08T09:21:46;4.68;;;2.08;;
12976;SDS011;6553;48.412;9.514;2023-08-08T09:24:13;3.83;;;2.10;;
12976;SDS011;6553;48.412;9.514;2023-08-08T09:26:40;5.28;;;1.55;;
12976;SDS011;6553;48.412;9.514;2023-08-08T09:29:07;3.40;;;1.60;;
12976;SDS011;6553;48.412;9.514;2023-08-08T09:31:35;6.85;;;1.92;;
12976;SDS011;6553;48.412;9.514;2023-08-08T09:34:01;3.92;;;1.60;;
12976;SDS011;6553;48.412;9.514;2023-08-08T09:36:29;5.25;;;1.73;;
12976;SDS011;6553;48.412;9.514;2023-08-08T09:38:54;3.65;;;1.70;;
12976;SDS011;6553;48.412;9.514;2023-08-08T09:41:22;2.58;;;1.50;;
12976;SDS011;6553;48.412;9.514;2023-08-08T09:43:49;10.35;;;2.08;;
12976;SDS011;6553;48.412;9.514;2023-08-08T09:46:20;3.17;;;2.15;;
12976;SDS011;6553;48.412;9.514;2023-08-08T09:48:48;2.40;;;1.48;;
12976;SDS011;6553;48.412;9.514;2023-08-08T09:51:14;7.50;;;2.30;;
12976;SDS011;6553;48.412;9.514;2023-08-08T09:53:40;5.95;;;1.60;;
12976;SDS011;6553;48.412;9.514;2023-08-08T09:56:07;6.53;;;2.15;;
12976;SDS011;6553;48.412;9.514;2023-08-08T09:58:33;3.83;;;1.60;;
12976;SDS011;6553;48.412;9.514;2023-08-08T10:00:59;6.05;;;1.77;;
12976;SDS011;6553;48.412;9.514;2023-08-08T10:03:25;3.22;;;1.70;;
12976;SDS011;6553;48.412;9.514;2023-08-08T10:05:52;6.43;;;1.83;;
12976;SDS011;6553;48.412;9.514;2023-08-08T10:08:18;6.35;;;1.90;;
12976;SDS011;6553;48.412;9.514;2023-08-08T10:10:45;3.45;;;1.77;;
12976;SDS011;6553;48.412;9.514;2023-08-08T10:13:23;7.70;;;2.17;;
12976;SDS011;6553;48.412;9.514;2023-08-08T10:15:51;3.55;;;1.73;;
12976;SDS011;6553;48.412;9.514;2023-08-08T10:18:21;6.38;;;1.60;;
12976;SDS011;6553;48.412;9.514;2023-08-08T10:20:48;2.72;;;1.58;;
12976;SDS011;6553;48.412;9.514;2023-08-08T10:23:16;4.10;;;1.85;;
12976;SDS011;6553;48.412;9.514;2023-08-08T10:25:44;6.80;;;1.92;;
12976;SDS011;6553;48.412;9.514;2023-08-08T10:28:18;2.85;;;1.70;;
12976;SDS011;6553;48.412;9.514;2023-08-08T10:36:04;2.75;;;1.35;;
12976;SDS011;6553;48.412;9.514;2023-08-08T10:41:10;5.47;;;1.83;;
12976;SDS011;6553;48.412;9.514;2023-08-08T10:43:38;5.30;;;1.85;;
12976;SDS011;6553;48.412;9.514;2023-08-08T10:46:13;3.08;;;1.63;;
12976;SDS011;6553;48.412;9.514;2023-08-08T10:48:48;4.70;;;2.05;;
12976;SDS011;6553;48.412;9.514;2023-08-08T10:51:18;3.30;;;1.70;;
12976;SDS011;6553;48.412;9.514;2023-08-08T10:53:45;2.65;;;1.63;;
12976;SDS011;6553;48.412;9.514;2023-08-08T10:56:14;2.28;;;1.50;;
12976;SDS011;6553;48.412;9.514;2023-08-08T10:58:40;2.30;;;1.35;;
12976;SDS011;6553;48.412;9.514;2023-08-08T11:01:12;4.32;;;1.92;;
12976;SDS011;6553;48.412;9.514;2023-08-08T11:03:39;2.67;;;1.58;;
12976;SDS011;6553;48.412;9.514;2023-08-08T11:06:06;2.17;;;1.50;;
12976;SDS011;6553;48.412;9.514;2023-08-08T11:08:33;4.38;;;1.70;;
12976;SDS011;6553;48.412;9.514;2023-08-08T11:11:03;3.15;;;1.20;;
12976;SDS011;6553;48.412;9.514;2023-08-08T11:13:31;1.85;;;1.35;;
12976;SDS011;6553;48.412;9.514;2023-08-08T11:15:57;2.00;;;1.42;;
12976;SDS011;6553;48.412;9.514;2023-08-08T11:18:23;2.50;;;1.45;;
12976;SDS011;6553;48.412;9.514;2023-08-08T11:20:50;2.33;;;1.60;;
12976;SDS011;6553;48.412;9.514;2023-08-08T11:23:16;2.08;;;1.42;;
12976;SDS011;6553;48.412;9.514;2023-08-08T11:25:44;2.03;;;1.65;;
12976;SDS011;6553;48.412;9.514;2023-08-08T11:28:11;2.45;;;1.55;;
12976;SDS011;6553;48.412;9.514;2023-08-08T11:30:38;4.20;;;1.70;;
12976;SDS011;6553;48.412;9.514;2023-08-08T11:33:09;5.28;;;1.80;;
12976;SDS011;6553;48.412;9.514;2023-08-08T11:35:37;5.25;;;1.90;;
12976;SDS011;6553;48.412;9.514;2023-08-08T11:38:10;4.93;;;1.98;;
12976;SDS011;6553;48.412;9.514;2023-08-08T11:40:37;6.45;;;2.00;;
12976;SDS011;6553;48.412;9.514;2023-08-08T11:43:03;8.20;;;2.05;;
12976;SDS011;6553;48.412;9.514;2023-08-08T11:45:31;5.40;;;1.85;;
12976;SDS011;6553;48.412;9.514;2023-08-08T11:47:57;5.75;;;1.70;;
12976;SDS011;6553;48.412;9.514;2023-08-08T11:50:24;4.70;;;1.60;;
12976;SDS011;6553;48.412;9.514;2023-08-08T11:52:53;4.25;;;1.90;;
12976;SDS011;6553;48.412;9.514;2023-08-08T11:55:20;8.93;;;1.90;;
12976;SDS011;6553;48.412;9.514;2023-08-08T11:57:53;5.55;;;1.73;;
12976;SDS011;6553;48.412;9.514;2023-08-08T12:00:29;3.30;;;1.40;;
12976;SDS011;6553;48.412;9.514;2023-08-08T12:02:56;3.40;;;1.60;;
12976;SDS011;6553;48.412;9.514;2023-08-08T12:05:23;3.97;;;1.60;;
12976;SDS011;6553;48.412;9.514;2023-08-08T12:07:49;5.13;;;1.77;;
12976;SDS011;6553;48.412;9.514;2023-08-08T12:10:19;3.00;;;1.73;;
12976;SDS011;6553;48.412;9.514;2023-08-08T12:12:52;3.17;;;1.40;;
12976;SDS011;6553;48.412;9.514;2023-08-08T12:15:20;3.92;;;1.58;;
12976;SDS011;6553;48.412;9.514;2023-08-08T12:17:46;2.75;;;1.60;;
12976;SDS011;6553;48.412;9.514;2023-08-08T12:20:14;6.50;;;1.65;;
12976;SDS011;6553;48.412;9.514;2023-08-08T12:22:40;3.42;;;1.85;;
12976;SDS011;6553;48.412;9.514;2023-08-08T12:25:06;2.15;;;1.42;;
12976;SDS011;6553;48.412;9.514;2023-08-08T12:27:33;2.90;;;1.70;;
12976;SDS011;6553;48.412;9.514;2023-08-08T12:29:59;3.67;;;1.92;;
12976;SDS011;6553;48.412;9.514;2023-08-08T12:32:26;2.83;;;1.35;;
12976;SDS011;6553;48.412;9.514;2023-08-08T12:34:54;2.65;;;1.52;;
12976;SDS011;6553;48.412;9.514;2023-08-08T12:37:21;2.10;;;1.70;;
12976;SDS011;6553;48.412;9.514;2023-08-08T12:39:48;3.22;;;1.77;;
12976;SDS011;6553;48.412;9.514;2023-08-08T12:42:15;5.50;;;1.55;;
12976;SDS011;6553;48.412;9.514;2023-08-08T12:44:41;1.80;;;1.20;;
12976;SDS011;6553;48.412;9.514;2023-08-08T12:47:07;2.60;;;1.52;;
12976;SDS011;6553;48.412;9.514;2023-08-08T12:49:33;3.95;;;1.48;;
12976;SDS011;6553;48.412;9.514;2023-08-08T12:51:59;3.88;;;1.67;;
12976;SDS011;6553;48.412;9.514;2023-08-08T12:54:24;2.38;;;1.63;;
12976;SDS011;6553;48.412;9.514;2023-08-08T12:56:51;4.30;;;1.45;;
12976;SDS011;6553;48.412;9.514;2023-08-08T12:59:16;1.50;;;1.20;;
12976;SDS011;6553;48.412;9.514;2023-08-08T13:01:42;4.15;;;1.48;;
12976;SDS011;6553;48.412;9.514;2023-08-08T13:04:08;3.17;;;1.52;;
12976;SDS011;6553;48.412;9.514;2023-08-08T13:06:33;3.05;;;1.50;;
12976;SDS011;6553;48.412;9.514;2023-08-08T13:08:59;2.53;;;1.55;;
12976;SDS011;6553;48.412;9.514;2023-08-08T13:11:28;1.75;;;1.50;;
12976;SDS011;6553;48.412;9.514;2023-08-08T13:13:54;2.03;;;1.40;;
12976;SDS011;6553;48.412;9.514;2023-08-08T13:16:20;2.10;;;1.40;;
12976;SDS011;6553;48.412;9.514;2023-08-08T13:18:45;2.10;;;1.50;;
12976;SDS011;6553;48.412;9.514;2023-08-08T13:21:11;3.10;;;2.00;;
12976;SDS011;6553;48.412;9.514;2023-08-08T13:23:38;5.35;;;1.75;;
12976;SDS011;6553;48.412;9.514;2023-08-08T13:26:05;1.90;;;1.50;;
12976;SDS011;6553;48.412;9.514;2023-08-08T13:28:31;1.73;;;1.30;;
12976;SDS011;6553;48.412;9.514;2023-08-08T13:30:56;2.97;;;1.55;;
12976;SDS011;6553;48.412;9.514;2023-08-08T13:33:22;3.25;;;1.70;;
12976;SDS011;6553;48.412;9.514;2023-08-08T13:35:49;1.30;;;1.20;;
12976;SDS011;6553;48.412;9.514;2023-08-08T13:38:14;4.18;;;1.35;;
12976;SDS011;6553;48.412;9.514;2023-08-08T13:40:43;2.33;;;1.50;;
12976;SDS011;6553;48.412;9.514;2023-08-08T13:43:09;2.53;;;1.33;;
12976;SDS011;6553;48.412;9.514;2023-08-08T13:45:35;2.85;;;1.50;;
12976;SDS011;6553;48.412;9.514;2023-08-08T13:48:01;2.33;;;1.13;;
12976;SDS011;6553;48.412;9.514;2023-08-08T13:50:27;3.03;;;1.50;;
12976;SDS011;6553;48.412;9.514;2023-08-08T13:52:54;1.65;;;1.23;;
12976;SDS011;6553;48.412;9.514;2023-08-08T13:55:20;1.95;;;1.40;;
12976;SDS011;6553;48.412;9.514;2023-08-08T13:57:46;2.20;;;1.50;;
12976;SDS011;6553;48.412;9.514;2023-08-08T14:00:11;1.85;;;1.42;;
12976;SDS011;6553;48.412;9.514;2023-08-08T14:02:38;2.15;;;1.30;;
12976;SDS011;6553;48.412;9.514;2023-08-08T14:05:04;1.60;;;1.50;;
12976;SDS011;6553;48.412;9.514;2023-08-08T14:07:34;1.40;;;1.30;;
12976;SDS011;6553;48.412;9.514;2023-08-08T14:10:01;1.92;;;1.42;;
12976;SDS011;6553;48.412;9.514;2023-08-08T14:12:29;1.63;;;1.50;;
12976;SDS011;6553;48.412;9.514;2023-08-08T14:14:55;2.03;;;1.55;;
12976;SDS011;6553;48.412;9.514;2023-08-08T14:17:21;1.20;;;1.10;;
12976;SDS011;6553;48.412;9.514;2023-08-08T14:19:47;1.95;;;1.30;;
12976;SDS011;6553;48.412;9.514;2023-08-08T14:22:13;1.50;;;1.40;;
12976;SDS011;6553;48.412;9.514;2023-08-08T14:24:39;1.45;;;1.23;;
12976;SDS011;6553;48.412;9.514;2023-08-08T14:27:07;1.30;;;1.20;;
12976;SDS011;6553;48.412;9.514;2023-08-08T14:29:32;1.63;;;1.20;;
12976;SDS011;6553;48.412;9.514;2023-08-08T14:31:58;1.55;;;1.10;;
12976;SDS011;6553;48.412;9.514;2023-08-08T14:34:30;1.60;;;1.50;;
12976;SDS011;6553;48.412;9.514;2023-08-08T14:36:58;2.58;;;1.30;;
12976;SDS011;6553;48.412;9.514;2023-08-08T14:39:26;2.28;;;1.15;;
12976;SDS011;6553;48.412;9.514;2023-08-08T14:41:53;1.65;;;1.20;;
12976;SDS011;6553;48.412;9.514;2023-08-08T14:44:18;1.30;;;1.20;;
12976;SDS011;6553;48.412;9.514;2023-08-08T14:46:44;1.15;;;1.10;;
12976;SDS011;6553;48.412;9.514;2023-08-08T14:49:10;1.38;;;1.27;;
12976;SDS011;6553;48.412;9.514;2023-08-08T14:51:35;1.38;;;1.20;;
12976;SDS011;6553;48.412;9.514;2023-08-08T14:54:01;1.73;;;1.42;;
12976;SDS011;6553;48.412;9.514;2023-08-08T14:56:28;2.25;;;1.20;;
12976;SDS011;6553;48.412;9.514;2023-08-08T14:58:54;1.42;;;1.25;;
12976;SDS011;6553;48.412;9.514;2023-08-08T15:01:21;1.25;;;1.10;;
12976;SDS011;6553;48.412;9.514;2023-08-08T15:03:47;1.20;;;1.10;;
12976;SDS011;6553;48.412;9.514;2023-08-08T15:06:12;1.50;;;1.40;;
12976;SDS011;6553;48.412;9.514;2023-08-08T15:08:38;1.30;;;1.20;;